Time;durP1;ratioP1;P1;durP2;ratioP2;P2;SDS_P1;SDS_P2;PMS_P1;PMS_P2;Temp;Humidity;BMP_temperature;BMP_pressure;BME280_temperature;BME280_humidity;BME280_pressure;Samples;Min_cycle;Max_cycle;Signal;HPM_P1;HPM_P2
2022/06/29 00:00:16;;;;;;;2.70;1.80;;;;;;;;;;4970932;28;20444;-63
2022/06/29 00:02:45;;;;;;;2.72;1.95;;;;;;;;;;4973234;28;20480;-64
2022/06/29 00:05:13;;;;;;;3.42;2.65;;;;;;;;;;4971311;28;20506;-64
2022/06/29 00:07:39;;;;;;;3.38;2.35;;;;;;;;;;4972012;28;20025;-64
2022/06/29 00:10:05;;;;;;;2.80;2.03;;;;;;;;;;4971657;28;20320;-63
2022/06/29 00:12:30;;;;;;;2.45;2.03;;;;;;;;;;4971412;28;20332;-63
2022/06/29 00:14:56;;;;;;;2.88;2.15;;;;;;;;;;4973131;28;20463;-63
2022/06/29 00:17:22;;;;;;;2.88;2.17;;;;;;;;;;4971265;28;20543;-63
2022/06/29 00:19:48;;;;;;;3.45;2.20;;;;;;;;;;4971615;28;20029;-63
2022/06/29 00:22:14;;;;;;;2.85;1.70;;;;;;;;;;4971392;28;20067;-63
2022/06/29 00:24:39;;;;;;;2.35;1.90;;;;;;;;;;4969990;28;20412;-63
2022/06/29 00:27:05;;;;;;;2.85;2.20;;;;;;;;;;4970884;28;20340;-63
2022/06/29 00:29:31;;;;;;;2.20;2.00;;;;;;;;;;4970892;28;20017;-63
2022/06/29 00:31:56;;;;;;;2.47;1.90;;;;;;;;;;4973076;28;20439;-62
2022/06/29 00:34:22;;;;;;;2.45;1.92;;;;;;;;;;4971127;28;20590;-63
2022/06/29 00:36:47;;;;;;;3.50;2.22;;;;;;;;;;4971188;28;20187;-63
2022/06/29 00:39:13;;;;;;;2.38;1.92;;;;;;;;;;4970673;28;20352;-63
2022/06/29 00:41:40;;;;;;;2.22;1.70;;;;;;;;;;4970967;28;20440;-63
2022/06/29 00:44:07;;;;;;;3.92;2.50;;;;;;;;;;4970326;28;20429;-63
2022/06/29 00:46:34;;;;;;;3.08;2.03;;;;;;;;;;4970511;28;20216;-66
2022/06/29 00:48:59;;;;;;;2.67;2.00;;;;;;;;;;4970884;28;20459;-63
2022/06/29 00:51:26;;;;;;;2.85;2.22;;;;;;;;;;4970215;28;20436;-63
2022/06/29 00:53:54;;;;;;;2.75;2.20;;;;;;;;;;4952591;28;20107;-63
2022/06/29 00:56:21;;;;;;;2.70;2.17;;;;;;;;;;4953107;28;20402;-65
2022/06/29 00:58:46;;;;;;;3.25;2.10;;;;;;;;;;4952320;28;20420;-63
2022/06/29 01:01:12;;;;;;;2.25;1.90;;;;;;;;;;4974072;28;20302;-63
2022/06/29 01:03:38;;;;;;;2.67;1.85;;;;;;;;;;4976841;28;20467;-65
2022/06/29 01:06:03;;;;;;;2.53;1.98;;;;;;;;;;4970920;28;20375;-63
2022/06/29 01:08:29;;;;;;;2.83;1.92;;;;;;;;;;4970749;28;20316;-63
2022/06/29 01:10:54;;;;;;;3.47;2.20;;;;;;;;;;4970392;28;20416;-63
2022/06/29 01:13:19;;;;;;;3.08;1.80;;;;;;;;;;4970174;28;20459;-62
2022/06/29 01:15:45;;;;;;;2.80;2.35;;;;;;;;;;4970604;28;20332;-63
2022/06/29 01:18:10;;;;;;;2.80;2.13;;;;;;;;;;4970449;28;20403;-63
2022/06/29 01:20:36;;;;;;;4.13;2.20;;;;;;;;;;4970060;28;20419;-62
2022/06/29 01:23:01;;;;;;;3.42;2.45;;;;;;;;;;4969407;28;20547;-63
2022/06/29 01:25:27;;;;;;;3.72;2.42;;;;;;;;;;4952458;28;20459;-63
2022/06/29 01:27:52;;;;;;;4.00;2.35;;;;;;;;;;4970138;28;20112;-63
2022/06/29 01:30:17;;;;;;;3.13;2.38;;;;;;;;;;4970196;28;20435;-63
2022/06/29 01:32:43;;;;;;;3.55;2.08;;;;;;;;;;4970641;28;20447;-62
2022/06/29 01:35:10;;;;;;;5.38;2.40;;;;;;;;;;4970143;28;20459;-63
2022/06/29 01:37:37;;;;;;;2.75;2.28;;;;;;;;;;4970295;28;20428;-63
2022/06/29 01:40:04;;;;;;;3.20;2.30;;;;;;;;;;4970258;28;20664;-63
2022/06/29 01:42:29;;;;;;;3.10;2.28;;;;;;;;;;4970097;28;20348;-63
2022/06/29 01:44:54;;;;;;;5.75;2.50;;;;;;;;;;4969952;28;20406;-63
2022/06/29 01:47:20;;;;;;;4.93;2.67;;;;;;;;;;4968332;28;20480;-63
2022/06/29 01:49:45;;;;;;;2.45;2.00;;;;;;;;;;4969619;28;20467;-65
2022/06/29 01:52:10;;;;;;;3.03;2.40;;;;;;;;;;4969593;28;20348;-63
2022/06/29 01:54:36;;;;;;;4.20;2.30;;;;;;;;;;4969299;28;20056;-63
2022/06/29 01:57:01;;;;;;;3.78;2.63;;;;;;;;;;4969451;28;20360;-66
2022/06/29 01:59:27;;;;;;;4.13;2.40;;;;;;;;;;4969956;28;20475;-63
2022/06/29 02:01:52;;;;;;;4.28;2.40;;;;;;;;;;4969473;28;20499;-63
2022/06/29 02:04:17;;;;;;;4.45;2.60;;;;;;;;;;4969343;28;20162;-63
2022/06/29 02:06:43;;;;;;;3.42;2.53;;;;;;;;;;4969362;28;20324;-63
2022/06/29 02:09:09;;;;;;;3.55;2.40;;;;;;;;;;4970514;28;20383;-63
2022/06/29 02:11:34;;;;;;;2.55;2.30;;;;;;;;;;4969538;28;20496;-63
2022/06/29 02:13:59;;;;;;;3.33;2.60;;;;;;;;;;4969542;28;20403;-63
2022/06/29 02:16:25;;;;;;;3.45;2.75;;;;;;;;;;4969716;28;20052;-64
2022/06/29 02:18:50;;;;;;;3.13;2.17;;;;;;;;;;4969139;28;20411;-63
2022/06/29 02:21:16;;;;;;;3.70;2.63;;;;;;;;;;4969358;28;20347;-63
2022/06/29 02:23:41;;;;;;;4.63;2.83;;;;;;;;;;4970974;28;20479;-63
2022/06/29 02:26:06;;;;;;;2.72;2.20;;;;;;;;;;4973787;28;20344;-63
2022/06/29 02:28:32;;;;;;;3.25;2.40;;;;;;;;;;4973116;28;20093;-63
2022/06/29 02:36:25;;;;;;;3.63;2.60;;;;;;;;;;4973948;28;20364;-63
2022/06/29 02:38:51;;;;;;;3.30;2.90;;;;;;;;;;4973785;28;20407;-63
2022/06/29 02:41:16;;;;;;;3.25;2.75;;;;;;;;;;4974403;28;20424;-63
2022/06/29 02:43:41;;;;;;;4.55;2.90;;;;;;;;;;4973784;28;20376;-64
2022/06/29 02:46:07;;;;;;;3.53;2.80;;;;;;;;;;4972880;28;20318;-63
2022/06/29 02:48:35;;;;;;;4.22;2.70;;;;;;;;;;4956082;28;20455;-63
2022/06/29 02:51:00;;;;;;;4.13;2.97;;;;;;;;;;4973791;28;20420;-63
2022/06/29 02:53:26;;;;;;;3.83;2.80;;;;;;;;;;4972735;28;20479;-63
2022/06/29 02:55:51;;;;;;;4.78;3.22;;;;;;;;;;4972819;28;20427;-62
2022/06/29 02:58:17;;;;;;;4.13;3.17;;;;;;;;;;4973409;28;20446;-63
2022/06/29 03:00:42;;;;;;;4.68;3.17;;;;;;;;;;4972952;28;20087;-69
2022/06/29 03:03:07;;;;;;;6.53;2.45;;;;;;;;;;4972301;28;20459;-62
2022/06/29 03:05:33;;;;;;;5.38;3.28;;;;;;;;;;4972594;28;20583;-63
2022/06/29 03:07:58;;;;;;;4.28;2.90;;;;;;;;;;4972303;28;20041;-66
2022/06/29 03:10:24;;;;;;;4.43;3.08;;;;;;;;;;4972438;28;20059;-63
2022/06/29 03:12:49;;;;;;;4.60;3.35;;;;;;;;;;4972656;28;20021;-63
2022/06/29 03:15:14;;;;;;;3.85;3.03;;;;;;;;;;4972127;28;20475;-63
2022/06/29 03:17:40;;;;;;;4.53;3.05;;;;;;;;;;4972183;28;20415;-63
2022/06/29 03:20:06;;;;;;;4.07;2.80;;;;;;;;;;4971997;28;20475;-63
2022/06/29 03:22:33;;;;;;;4.65;3.05;;;;;;;;;;4971700;28;20395;-63
2022/06/29 03:24:59;;;;;;;4.05;3.03;;;;;;;;;;4972539;28;20336;-62
2022/06/29 03:27:24;;;;;;;3.90;2.85;;;;;;;;;;4971972;28;20065;-63
2022/06/29 03:29:49;;;;;;;4.50;3.05;;;;;;;;;;4971837;28;20344;-65
2022/06/29 03:32:15;;;;;;;4.55;2.83;;;;;;;;;;4971791;28;20367;-63
2022/06/29 03:34:40;;;;;;;3.92;2.97;;;;;;;;;;4970802;28;20121;-63
2022/06/29 03:37:06;;;;;;;4.28;2.85;;;;;;;;;;4973120;28;20336;-63
2022/06/29 03:39:31;;;;;;;4.15;2.83;;;;;;;;;;4972041;28;20343;-63
2022/06/29 03:41:56;;;;;;;3.33;2.85;;;;;;;;;;4972842;28;20298;-63
2022/06/29 03:44:22;;;;;;;4.28;3.05;;;;;;;;;;4971577;28;20317;-63
2022/06/29 03:46:47;;;;;;;3.78;2.90;;;;;;;;;;4972516;28;20490;-63
2022/06/29 03:49:12;;;;;;;3.72;3.15;;;;;;;;;;4954399;28;20417;-63
2022/06/29 03:51:38;;;;;;;4.85;2.70;;;;;;;;;;4971540;28;20135;-63
2022/06/29 03:54:03;;;;;;;3.80;3.20;;;;;;;;;;4972277;28;20034;-63
2022/06/29 03:56:29;;;;;;;5.70;3.45;;;;;;;;;;4971311;28;20360;-63
2022/06/29 03:58:54;;;;;;;3.83;2.95;;;;;;;;;;4972175;28;20360;-63
2022/06/29 04:01:19;;;;;;;4.93;3.95;;;;;;;;;;4971348;28;20414;-62
2022/06/29 04:03:45;;;;;;;3.88;3.00;;;;;;;;;;4972669;28;20435;-63
2022/06/29 04:06:10;;;;;;;5.53;2.97;;;;;;;;;;4971982;28;20452;-62
2022/06/29 04:08:37;;;;;;;4.25;3.35;;;;;;;;;;4971398;28;20301;-63
2022/06/29 04:11:03;;;;;;;4.32;3.33;;;;;;;;;;4971491;28;20316;-62
2022/06/29 04:13:28;;;;;;;3.35;2.65;;;;;;;;;;4971450;28;20584;-63
2022/06/29 04:15:54;;;;;;;3.80;3.33;;;;;;;;;;4972590;28;20419;-63
2022/06/29 04:18:19;;;;;;;4.70;3.00;;;;;;;;;;4953730;28;20439;-63
2022/06/29 04:23:45;;;;;;;4.65;3.38;;;;;;;;;;4890649;28;20367;-67
2022/06/29 04:26:10;;;;;;;4.15;3.45;;;;;;;;;;4955268;28;20037;-63
2022/06/29 04:28:36;;;;;;;4.68;3.90;;;;;;;;;;4971971;28;20321;-63
2022/06/29 04:31:02;;;;;;;3.80;3.00;;;;;;;;;;4970862;28;20037;-63
2022/06/29 04:33:27;;;;;;;4.13;3.38;;;;;;;;;;4972474;28;20468;-63
2022/06/29 04:35:53;;;;;;;5.35;3.70;;;;;;;;;;4970355;28;20459;-62
2022/06/29 04:38:19;;;;;;;3.97;2.95;;;;;;;;;;4971433;28;20436;-62
2022/06/29 04:40:44;;;;;;;5.07;3.13;;;;;;;;;;4970685;28;20029;-63
2022/06/29 04:43:10;;;;;;;3.55;2.90;;;;;;;;;;4971006;28;20022;-63
2022/06/29 04:48:19;;;;;;;4.15;3.10;;;;;;;;;;4971756;28;20060;-64
2022/06/29 04:50:44;;;;;;;3.40;2.83;;;;;;;;;;4970621;28;20033;-63
2022/06/29 04:53:10;;;;;;;6.53;3.33;;;;;;;;;;4971570;28;20411;-63
2022/06/29 04:55:35;;;;;;;4.80;3.45;;;;;;;;;;4971422;28;20352;-63
2022/06/29 04:58:00;;;;;;;4.00;3.20;;;;;;;;;;4970411;28;20021;-63
2022/06/29 05:00:26;;;;;;;4.90;3.30;;;;;;;;;;4970085;28;20029;-64
2022/06/29 05:02:51;;;;;;;4.75;3.55;;;;;;;;;;4970299;28;20123;-63
2022/06/29 05:05:17;;;;;;;5.30;3.50;;;;;;;;;;4970233;28;20489;-63
2022/06/29 05:07:42;;;;;;;4.50;3.45;;;;;;;;;;4970525;28;20026;-63
2022/06/29 05:10:08;;;;;;;5.85;3.83;;;;;;;;;;4970190;28;20459;-63
2022/06/29 05:12:33;;;;;;;3.70;2.90;;;;;;;;;;4970133;28;20317;-63
2022/06/29 05:14:59;;;;;;;4.63;3.00;;;;;;;;;;4970254;28;20348;-64
2022/06/29 05:17:24;;;;;;;4.95;3.28;;;;;;;;;;4971220;28;20034;-63
2022/06/29 05:19:49;;;;;;;4.00;3.55;;;;;;;;;;4970513;28;20504;-63
2022/06/29 05:22:15;;;;;;;3.90;3.10;;;;;;;;;;4969352;28;20045;-63
2022/06/29 05:24:40;;;;;;;4.40;3.25;;;;;;;;;;4969994;28;20048;-63
2022/06/29 05:27:05;;;;;;;5.82;3.60;;;;;;;;;;4969405;28;20026;-63
2022/06/29 05:29:31;;;;;;;4.68;3.55;;;;;;;;;;4969731;28;20460;-63
2022/06/29 05:31:57;;;;;;;4.10;3.40;;;;;;;;;;4969949;28;20355;-63
2022/06/29 05:34:22;;;;;;;4.60;3.30;;;;;;;;;;4969565;28;20059;-63
2022/06/29 05:36:47;;;;;;;4.55;3.33;;;;;;;;;;4970115;28;20456;-63
2022/06/29 05:39:13;;;;;;;4.80;3.53;;;;;;;;;;4969543;28;20391;-63
2022/06/29 05:41:38;;;;;;;6.43;3.47;;;;;;;;;;4970177;28;20416;-62
2022/06/29 05:44:04;;;;;;;3.58;2.70;;;;;;;;;;4969986;28;20056;-62
2022/06/29 05:46:31;;;;;;;4.70;3.03;;;;;;;;;;4969782;28;20147;-62
2022/06/29 05:48:56;;;;;;;7.25;3.50;;;;;;;;;;4969473;28;20416;-63
2022/06/29 05:51:21;;;;;;;4.78;3.53;;;;;;;;;;4969537;28;20502;-63
2022/06/29 05:53:47;;;;;;;5.22;3.10;;;;;;;;;;4969540;28;20538;-62
2022/06/29 05:56:12;;;;;;;4.38;3.15;;;;;;;;;;4970620;28;20308;-63
2022/06/29 05:58:37;;;;;;;4.70;3.67;;;;;;;;;;4970044;28;20397;-66
2022/06/29 06:01:06;;;;;;;4.20;3.28;;;;;;;;;;4969690;28;20644;-63
2022/06/29 06:03:32;;;;;;;5.38;3.45;;;;;;;;;;4969316;28;20498;-65
2022/06/29 06:05:57;;;;;;;4.38;3.22;;;;;;;;;;4969521;28;20497;-62
2022/06/29 06:08:22;;;;;;;3.95;3.25;;;;;;;;;;4969519;28;20425;-63
2022/06/29 06:10:48;;;;;;;3.67;2.92;;;;;;;;;;4969567;28;20348;-63
2022/06/29 06:13:13;;;;;;;4.25;3.55;;;;;;;;;;4970299;28;20477;-63
2022/06/29 06:15:39;;;;;;;4.03;3.28;;;;;;;;;;4969749;28;20033;-63
2022/06/29 06:18:04;;;;;;;4.30;3.20;;;;;;;;;;4969374;28;20408;-63
2022/06/29 06:20:31;;;;;;;5.10;3.50;;;;;;;;;;4969332;28;20367;-62
2022/06/29 06:22:56;;;;;;;6.07;3.55;;;;;;;;;;4968595;28;20479;-63
2022/06/29 06:25:22;;;;;;;4.82;3.50;;;;;;;;;;4969655;28;20549;-63
2022/06/29 06:27:48;;;;;;;4.63;3.58;;;;;;;;;;4969153;28;20424;-63
2022/06/29 06:30:13;;;;;;;3.85;3.00;;;;;;;;;;4969874;28;20367;-63
2022/06/29 06:32:38;;;;;;;4.95;3.75;;;;;;;;;;4969424;28;20463;-64
2022/06/29 06:35:05;;;;;;;5.30;4.03;;;;;;;;;;4970492;28;20325;-66
2022/06/29 06:37:30;;;;;;;4.07;2.85;;;;;;;;;;4969205;28;20507;-63
2022/06/29 06:42:41;;;;;;;3.90;3.35;;;;;;;;;;4970944;28;20434;-63
2022/06/29 06:45:07;;;;;;;4.28;3.20;;;;;;;;;;4968943;28;20410;-63
2022/06/29 06:47:32;;;;;;;6.40;3.75;;;;;;;;;;4969727;28;20352;-63
2022/06/29 06:49:57;;;;;;;4.75;3.47;;;;;;;;;;4969228;28;20316;-64
2022/06/29 06:52:23;;;;;;;3.92;3.42;;;;;;;;;;4969079;28;20488;-63
2022/06/29 06:54:48;;;;;;;5.68;3.38;;;;;;;;;;4969925;28;20052;-63
2022/06/29 06:57:13;;;;;;;4.07;3.42;;;;;;;;;;4969124;28;20496;-64
2022/06/29 06:59:39;;;;;;;4.88;3.83;;;;;;;;;;4968860;28;20021;-63
2022/06/29 07:02:04;;;;;;;6.60;3.65;;;;;;;;;;4968682;28;20394;-63
2022/06/29 07:04:30;;;;;;;3.50;2.90;;;;;;;;;;4951409;28;20439;-63
2022/06/29 07:06:55;;;;;;;5.78;3.85;;;;;;;;;;4968989;28;20043;-63
2022/06/29 07:09:21;;;;;;;5.15;3.42;;;;;;;;;;4970087;28;20391;-62
2022/06/29 07:11:46;;;;;;;4.28;3.67;;;;;;;;;;4973209;28;20057;-63
2022/06/29 07:14:12;;;;;;;9.27;3.80;;;;;;;;;;4954257;28;20364;-62
2022/06/29 07:16:37;;;;;;;4.65;3.38;;;;;;;;;;4973550;28;20376;-63
2022/06/29 07:19:02;;;;;;;4.28;3.60;;;;;;;;;;4972734;28;20426;-62
2022/06/29 07:21:28;;;;;;;4.72;3.17;;;;;;;;;;4972256;28;20447;-63
2022/06/29 07:23:58;;;;;;;4.63;3.60;;;;;;;;;;4973036;28;20495;-62
2022/06/29 07:26:26;;;;;;;4.28;3.47;;;;;;;;;;4971800;28;20470;-64
2022/06/29 07:28:52;;;;;;;4.15;3.22;;;;;;;;;;4972392;28;20025;-63
2022/06/29 07:31:18;;;;;;;3.97;3.33;;;;;;;;;;4972081;28;20026;-62
2022/06/29 07:33:43;;;;;;;4.28;3.35;;;;;;;;;;4972098;28;20347;-63
2022/06/29 07:36:09;;;;;;;5.30;3.28;;;;;;;;;;4971835;28;20021;-63
2022/06/29 07:38:35;;;;;;;5.28;3.67;;;;;;;;;;4972296;28;20394;-63
2022/06/29 07:41:01;;;;;;;4.45;3.60;;;;;;;;;;4972743;28;20432;-62
2022/06/29 07:43:29;;;;;;;4.35;3.60;;;;;;;;;;4972471;28;20517;-62
2022/06/29 07:45:56;;;;;;;;;;;;;;;;;;4972500;28;20416;-64
2022/06/29 07:48:24;;;;;;;4.43;3.65;;;;;;;;;;4971750;28;21310;-63
2022/06/29 07:50:50;;;;;;;4.70;3.58;;;;;;;;;;4972276;28;20444;-63
2022/06/29 07:53:15;;;;;;;4.57;3.40;;;;;;;;;;4971405;28;20563;-62
2022/06/29 07:55:40;;;;;;;4.55;3.63;;;;;;;;;;4971369;28;20393;-62
2022/06/29 07:58:06;;;;;;;5.78;4.25;;;;;;;;;;4971463;28;20440;-62
2022/06/29 08:00:31;;;;;;;5.05;4.13;;;;;;;;;;4971609;28;20029;-62
2022/06/29 08:02:57;;;;;;;4.25;3.28;;;;;;;;;;4971534;28;20475;-63
2022/06/29 08:05:23;;;;;;;4.38;3.28;;;;;;;;;;4971584;28;20111;-63
2022/06/29 08:07:49;;;;;;;5.40;3.35;;;;;;;;;;4970003;28;20336;-62
2022/06/29 08:10:14;;;;;;;4.05;3.22;;;;;;;;;;4971033;28;20363;-62
2022/06/29 08:12:40;;;;;;;5.70;3.63;;;;;;;;;;4972191;28;20052;-62
2022/06/29 08:15:06;;;;;;;3.97;2.83;;;;;;;;;;4970908;28;20361;-62
2022/06/29 08:17:31;;;;;;;5.82;3.28;;;;;;;;;;4953716;28;20377;-63
2022/06/29 08:19:57;;;;;;;5.72;3.50;;;;;;;;;;4971121;28;20421;-63
2022/06/29 08:22:22;;;;;;;4.43;3.35;;;;;;;;;;4970467;28;20337;-62
2022/06/29 08:24:47;;;;;;;4.32;3.30;;;;;;;;;;4971050;28;20447;-63
2022/06/29 08:27:13;;;;;;;4.53;3.40;;;;;;;;;;4971336;28;20394;-62
2022/06/29 08:29:38;;;;;;;4.38;3.20;;;;;;;;;;4970864;28;20297;-62
2022/06/29 08:32:04;;;;;;;3.88;3.33;;;;;;;;;;4971495;28;20121;-62
2022/06/29 08:34:42;;;;;;;4.72;3.20;;;;;;;;;;4971533;28;20418;-62
2022/06/29 08:37:07;;;;;;;3.78;3.00;;;;;;;;;;4971209;28;20424;-62
2022/06/29 08:39:35;;;;;;;3.88;3.08;;;;;;;;;;4970723;28;20377;-62
2022/06/29 08:42:03;;;;;;;3.20;2.65;;;;;;;;;;4970816;28;20098;-63
2022/06/29 08:44:32;;;;;;;4.07;3.20;;;;;;;;;;4970210;28;20343;-62
2022/06/29 08:46:58;;;;;;;4.10;3.13;;;;;;;;;;4970589;28;20432;-63
2022/06/29 08:49:24;;;;;;;4.68;3.67;;;;;;;;;;4970898;28;20034;-62
2022/06/29 08:51:51;;;;;;;3.47;2.80;;;;;;;;;;4970515;28;20477;-62
2022/06/29 08:54:17;;;;;;;4.47;3.60;;;;;;;;;;4969893;28;20419;-62
2022/06/29 08:56:43;;;;;;;4.07;3.00;;;;;;;;;;4952538;28;20372;-62
2022/06/29 08:59:09;;;;;;;4.30;2.95;;;;;;;;;;4971257;28;20391;-62
2022/06/29 09:01:36;;;;;;;4.22;3.08;;;;;;;;;;4970558;28;20562;-62
2022/06/29 09:04:02;;;;;;;3.83;2.80;;;;;;;;;;4970533;28;20091;-62
2022/06/29 09:06:27;;;;;;;4.93;3.60;;;;;;;;;;4970533;28;20443;-62
2022/06/29 09:08:53;;;;;;;5.07;3.00;;;;;;;;;;4970252;28;20033;-62
2022/06/29 09:11:29;;;;;;;3.60;3.22;;;;;;;;;;4969361;28;20417;-62
2022/06/29 09:14:16;;;;;;;4.32;2.90;;;;;;;;;;4970277;28;20372;-63
2022/06/29 09:16:53;;;;;;;5.03;2.95;;;;;;;;;;4970104;28;20374;-62
2022/06/29 09:19:26;;;;;;;4.53;3.33;;;;;;;;;;4969774;28;20346;-62
2022/06/29 09:21:54;;;;;;;3.45;3.00;;;;;;;;;;4969180;28;20415;-62
2022/06/29 09:24:38;;;;;;;4.30;3.05;;;;;;;;;;4969897;28;20452;-63
2022/06/29 09:27:05;;;;;;;3.92;3.20;;;;;;;;;;4969698;28;20313;-62
2022/06/29 09:29:32;;;;;;;3.30;2.92;;;;;;;;;;4969969;28;20029;-62
2022/06/29 09:32:01;;;;;;;4.95;3.47;;;;;;;;;;4968891;28;20103;-62
2022/06/29 09:34:28;;;;;;;7.70;3.22;;;;;;;;;;4969170;28;20356;-64
2022/06/29 09:36:55;;;;;;;4.03;3.15;;;;;;;;;;4951586;28;20337;-62
2022/06/29 09:39:36;;;;;;;4.28;3.47;;;;;;;;;;4969662;28;20348;-63
2022/06/29 09:42:06;;;;;;;4.40;3.13;;;;;;;;;;4969409;28;20498;-62
2022/06/29 09:44:31;;;;;;;5.03;3.38;;;;;;;;;;4969276;28;20432;-63
2022/06/29 09:46:57;;;;;;;3.65;3.00;;;;;;;;;;4969279;28;20454;-62
2022/06/29 09:49:28;;;;;;;4.25;3.00;;;;;;;;;;4969544;28;20436;-62
2022/06/29 09:51:58;;;;;;;4.13;3.08;;;;;;;;;;4969069;28;20470;-61
2022/06/29 09:54:54;;;;;;;2.92;2.33;;;;;;;;;;4969004;28;20455;-62
2022/06/29 09:57:22;;;;;;;3.67;3.17;;;;;;;;;;4962777;28;20507;-62
2022/06/29 10:02:38;;;;;;;3.22;2.33;;;;;;;;;;4969264;28;20399;-62
2022/06/29 10:05:06;;;;;;;3.47;3.13;;;;;;;;;;4970130;28;20026;-61
2022/06/29 10:07:34;;;;;;;4.25;2.90;;;;;;;;;;4969310;28;20502;-62
2022/06/29 10:10:00;;;;;;;4.45;3.67;;;;;;;;;;4968873;28;20340;-63
2022/06/29 10:16:07;;;;;;;4.15;3.17;;;;;;;;;;4969136;28;20124;-62
2022/06/29 10:18:48;;;;;;;4.07;2.63;;;;;;;;;;4969064;28;20486;-62
2022/06/29 10:21:17;;;;;;;4.97;3.45;;;;;;;;;;4951520;28;20356;-62
2022/06/29 10:23:46;;;;;;;;;;;;;;;;;;4951433;28;20466;-62
2022/06/29 10:26:35;;;;;;;;;;;;;;;;;;4969543;28;20343;-62
2022/06/29 10:29:06;;;;;;;4.78;3.08;;;;;;;;;;4969104;28;20418;-63
2022/06/29 10:34:31;;;;;;;4.95;3.20;;;;;;;;;;4969174;28;20442;-62
2022/06/29 10:37:04;;;;;;;3.45;2.53;;;;;;;;;;4968519;28;20083;-62
2022/06/29 10:39:48;;;;;;;3.08;2.67;;;;;;;;;;4969066;28;20052;-62
2022/06/29 10:45:14;;;;;;;3.97;3.03;;;;;;;;;;4971356;28;20091;-62
2022/06/29 10:47:42;;;;;;;3.92;3.15;;;;;;;;;;4972558;28;20530;-62
2022/06/29 10:50:21;;;;;;;3.83;3.20;;;;;;;;;;4954435;28;20428;-65
2022/06/29 10:52:48;;;;;;;4.82;3.22;;;;;;;;;;4972059;28;20451;-62
2022/06/29 10:55:15;;;;;;;3.10;2.80;;;;;;;;;;4972294;28;20428;-62
2022/06/29 10:57:42;;;;;;;3.45;2.90;;;;;;;;;;4973208;28;20065;-62
2022/06/29 11:00:09;;;;;;;3.00;2.70;;;;;;;;;;4973235;28;20468;-62
2022/06/29 11:02:35;;;;;;;3.22;2.60;;;;;;;;;;4954653;28;20406;-62
2022/06/29 11:05:01;;;;;;;3.55;2.80;;;;;;;;;;4972059;28;20306;-62
2022/06/29 11:12:56;;;;;;;3.15;2.70;;;;;;;;;;4972293;28;20467;-62
2022/06/29 11:15:41;;;;;;;3.60;2.60;;;;;;;;;;4973058;28;20455;-62
2022/06/29 11:18:15;;;;;;;2.83;2.33;;;;;;;;;;4972022;28;20361;-62
2022/06/29 11:20:44;;;;;;;3.75;2.85;;;;;;;;;;4972223;28;20025;-63
2022/06/29 11:23:12;;;;;;;3.20;2.70;;;;;;;;;;4971367;28;20064;-63
2022/06/29 11:25:49;;;;;;;3.17;2.60;;;;;;;;;;4954459;28;20383;-62
2022/06/29 11:28:18;;;;;;;4.10;2.57;;;;;;;;;;4972343;28;20520;-62
2022/06/29 11:31:00;;;;;;;2.92;2.30;;;;;;;;;;4972673;28;20486;-63
2022/06/29 11:33:37;;;;;;;2.72;2.20;;;;;;;;;;4971708;28;20356;-63
2022/06/29 11:36:06;;;;;;;3.97;2.10;;;;;;;;;;4953724;28;20060;-62
2022/06/29 11:38:36;;;;;;;3.25;2.20;;;;;;;;;;4971823;28;20495;-62
2022/06/29 11:41:11;;;;;;;3.03;2.30;;;;;;;;;;4972401;28;20483;-63
2022/06/29 11:43:37;;;;;;;4.43;2.38;;;;;;;;;;4971886;28;20344;-63
2022/06/29 11:46:02;;;;;;;2.55;2.33;;;;;;;;;;4971139;28;20072;-63
2022/06/29 11:48:29;;;;;;;3.58;2.45;;;;;;;;;;4971368;28;20530;-63
2022/06/29 11:50:58;;;;;;;3.45;2.65;;;;;;;;;;4971386;28;20459;-63
2022/06/29 11:53:44;;;;;;;3.25;2.13;;;;;;;;;;4971114;28;20052;-63
2022/06/29 11:56:17;;;;;;;3.15;2.63;;;;;;;;;;4970530;28;20055;-63
2022/06/29 11:58:47;;;;;;;3.67;2.45;;;;;;;;;;4971450;28;20096;-63
2022/06/29 12:01:16;;;;;;;2.55;2.17;;;;;;;;;;4971087;28;20395;-63
2022/06/29 12:03:49;;;;;;;3.50;2.50;;;;;;;;;;4971256;28;20332;-62
2022/06/29 12:06:15;;;;;;;3.17;2.53;;;;;;;;;;4971103;28;20530;-62
2022/06/29 12:08:40;;;;;;;3.53;2.45;;;;;;;;;;4971132;28;20363;-62
2022/06/29 12:11:06;;;;;;;2.90;2.15;;;;;;;;;;4971956;28;20030;-63
2022/06/29 12:13:31;;;;;;;2.40;2.03;;;;;;;;;;4970962;28;20359;-64
2022/06/29 12:15:57;;;;;;;3.33;2.30;;;;;;;;;;4970755;28;20376;-64
2022/06/29 12:18:23;;;;;;;3.33;2.38;;;;;;;;;;4970919;28;20594;-63
2022/06/29 12:20:48;;;;;;;3.03;2.50;;;;;;;;;;4970933;28;20104;-63
2022/06/29 12:23:14;;;;;;;3.08;2.22;;;;;;;;;;4970031;28;20384;-64
2022/06/29 12:25:39;;;;;;;3.53;2.25;;;;;;;;;;4970863;28;20503;-63
2022/06/29 12:28:04;;;;;;;3.95;2.40;;;;;;;;;;4970622;28;20436;-63
2022/06/29 12:30:30;;;;;;;2.60;2.17;;;;;;;;;;4970576;28;20420;-62
2022/06/29 12:32:56;;;;;;;2.45;2.20;;;;;;;;;;4971234;28;20412;-62
2022/06/29 12:35:21;;;;;;;3.35;2.03;;;;;;;;;;4952699;28;20343;-62
2022/06/29 12:37:46;;;;;;;2.10;1.90;;;;;;;;;;4970679;28;20392;-64
2022/06/29 12:40:12;;;;;;;2.83;2.28;;;;;;;;;;4970197;28;20479;-62
2022/06/29 12:42:39;;;;;;;2.67;2.35;;;;;;;;;;4970450;28;20411;-63
2022/06/29 12:45:05;;;;;;;3.00;2.60;;;;;;;;;;4970297;28;20444;-63
2022/06/29 12:47:31;;;;;;;3.38;2.67;;;;;;;;;;4958050;28;20439;-62
2022/06/29 12:49:56;;;;;;;2.90;2.45;;;;;;;;;;4971439;28;20021;-63
2022/06/29 12:52:24;;;;;;;3.50;2.78;;;;;;;;;;4970467;28;20068;-63
2022/06/29 12:54:50;;;;;;;2.70;2.30;;;;;;;;;;4970155;28;20025;-63
2022/06/29 12:57:18;;;;;;;2.70;2.22;;;;;;;;;;4969693;28;20486;-62
2022/06/29 12:59:44;;;;;;;4.25;2.20;;;;;;;;;;4970204;28;20407;-63
2022/06/29 13:02:09;;;;;;;3.20;2.90;;;;;;;;;;4969978;28;20324;-62
2022/06/29 13:04:35;;;;;;;2.67;2.38;;;;;;;;;;4970347;28;20482;-63
2022/06/29 13:07:01;;;;;;;2.90;2.55;;;;;;;;;;4970564;28;20436;-62
2022/06/29 13:09:29;;;;;;;3.75;2.50;;;;;;;;;;4969944;28;20385;-62
2022/06/29 13:11:55;;;;;;;2.60;2.22;;;;;;;;;;4970945;28;20423;-65
2022/06/29 13:14:20;;;;;;;3.72;2.65;;;;;;;;;;4970492;28;20464;-62
2022/06/29 13:16:46;;;;;;;3.35;2.38;;;;;;;;;;4970328;28;20436;-62
2022/06/29 13:19:11;;;;;;;3.80;2.80;;;;;;;;;;4969417;28;20026;-62
2022/06/29 13:21:39;;;;;;;3.65;2.60;;;;;;;;;;4970697;28;20436;-63
2022/06/29 13:24:09;;;;;;;3.30;2.80;;;;;;;;;;4969137;28;20322;-62
2022/06/29 13:26:34;;;;;;;3.97;2.97;;;;;;;;;;4969774;28;20529;-63
2022/06/29 13:29:00;;;;;;;2.90;2.40;;;;;;;;;;4969691;28;20491;-63
2022/06/29 13:31:26;;;;;;;3.28;2.60;;;;;;;;;;4970120;28;20407;-63
2022/06/29 13:33:52;;;;;;;3.63;2.58;;;;;;;;;;4969831;28;20575;-62
2022/06/29 13:36:17;;;;;;;3.10;2.70;;;;;;;;;;4969927;28;20374;-63
2022/06/29 13:38:43;;;;;;;3.20;2.63;;;;;;;;;;4970083;28;20359;-62
2022/06/29 13:41:09;;;;;;;4.82;2.80;;;;;;;;;;4969414;28;20333;-62
2022/06/29 13:43:34;;;;;;;2.92;2.45;;;;;;;;;;4969609;28;20408;-63
2022/06/29 13:45:59;;;;;;;2.38;2.17;;;;;;;;;;4969278;28;20384;-63
2022/06/29 13:48:25;;;;;;;3.65;2.58;;;;;;;;;;4969167;28;20470;-62
2022/06/29 13:50:50;;;;;;;5.35;2.42;;;;;;;;;;4969312;28;20421;-62
2022/06/29 13:53:16;;;;;;;3.50;2.90;;;;;;;;;;4951675;28;20021;-63
2022/06/29 13:55:41;;;;;;;6.05;3.33;;;;;;;;;;4969723;28;20118;-62
2022/06/29 13:58:06;;;;;;;3.38;2.83;;;;;;;;;;4969026;28;20352;-63
2022/06/29 14:00:35;;;;;;;4.60;2.63;;;;;;;;;;4943664;28;20053;-62
2022/06/29 14:03:01;;;;;;;2.58;2.38;;;;;;;;;;4229747;28;10000848;-62
2022/06/29 14:05:27;;;;;;;5.32;3.08;;;;;;;;;;4969545;28;20491;-65
2022/06/29 14:07:53;;;;;;;4.18;2.45;;;;;;;;;;4969401;28;20462;-62
2022/06/29 14:10:19;;;;;;;3.67;2.65;;;;;;;;;;4969568;28;20444;-62
2022/06/29 14:12:45;;;;;;;4.07;3.40;;;;;;;;;;4951108;28;20424;-62
2022/06/29 14:15:11;;;;;;;6.15;3.13;;;;;;;;;;4969775;28;20458;-62
2022/06/29 14:17:36;;;;;;;4.75;3.53;;;;;;;;;;4968776;28;20056;-62
2022/06/29 14:20:02;;;;;;;2.80;2.38;;;;;;;;;;4971868;28;20026;-62
2022/06/29 14:22:27;;;;;;;6.38;3.17;;;;;;;;;;4973677;28;20069;-63
2022/06/29 14:24:53;;;;;;;3.63;2.38;;;;;;;;;;4955361;28;20034;-62
2022/06/29 14:27:18;;;;;;;3.25;2.55;;;;;;;;;;4972783;28;20048;-62
2022/06/29 14:29:44;;;;;;;5.55;3.22;;;;;;;;;;4973248;28;20351;-62
2022/06/29 14:32:09;;;;;;;3.35;2.58;;;;;;;;;;4972499;28;20383;-62
2022/06/29 14:34:35;;;;;;;3.60;3.30;;;;;;;;;;4972861;28;20424;-63
2022/06/29 14:37:00;;;;;;;4.20;3.10;;;;;;;;;;4972393;28;20021;-62
2022/06/29 14:39:26;;;;;;;3.95;3.03;;;;;;;;;;4972898;28;20487;-62
2022/06/29 14:41:51;;;;;;;4.65;3.30;;;;;;;;;;4972239;28;20320;-62
2022/06/29 14:44:17;;;;;;;4.50;3.28;;;;;;;;;;4954726;28;20373;-62
2022/06/29 14:46:42;;;;;;;5.10;3.78;;;;;;;;;;4972442;28;20380;-62
2022/06/29 14:49:07;;;;;;;3.33;3.03;;;;;;;;;;4972877;28;20451;-63
2022/06/29 14:51:33;;;;;;;2.90;2.60;;;;;;;;;;4972408;28;20499;-62
2022/06/29 14:53:59;;;;;;;5.28;2.80;;;;;;;;;;4955267;28;20060;-62
2022/06/29 14:56:24;;;;;;;3.78;2.88;;;;;;;;;;4955131;28;20445;-62
2022/06/29 14:58:50;;;;;;;3.63;3.08;;;;;;;;;;4972473;28;20452;-62
2022/06/29 15:01:17;;;;;;;3.38;2.88;;;;;;;;;;4971906;28;20333;-62
2022/06/29 15:03:43;;;;;;;3.40;2.95;;;;;;;;;;4973064;28;20119;-65
2022/06/29 15:06:09;;;;;;;3.72;3.00;;;;;;;;;;4971973;28;20424;-63
2022/06/29 15:08:35;;;;;;;5.53;3.20;;;;;;;;;;4954852;28;20133;-62
2022/06/29 15:11:00;;;;;;;6.35;3.13;;;;;;;;;;4973195;28;20509;-62